createdAt,value
2018-09-20T00:01:53.766Z,101298.41
2018-09-20T00:06:48.286Z,101298.53
2018-09-20T00:11:43.017Z,101292.44
2018-09-20T00:16:37.491Z,101286.11
2018-09-20T00:21:31.978Z,101278.33
2018-09-20T00:26:26.666Z,101272.00
2018-09-20T00:31:21.561Z,101265.91
2018-09-20T00:36:16.261Z,101268.23
2018-09-20T00:41:10.716Z,101274.94
2018-09-20T00:46:05.245Z,101262.73
2018-09-20T00:50:59.778Z,101264.93
2018-09-20T00:55:54.281Z,101267.37
2018-09-20T01:00:48.822Z,101260.70
2018-09-20T01:05:43.498Z,101267.42
2018-09-20T01:10:38.061Z,101264.48
2018-09-20T01:15:32.526Z,101264.48
2018-09-20T01:20:27.142Z,101264.60
2018-09-20T01:25:21.922Z,101270.31
2018-09-20T01:30:16.384Z,101270.20
2018-09-20T01:35:10.888Z,101266.65
2018-09-20T01:40:05.535Z,101267.14
2018-09-20T01:45:00.346Z,101268.97
2018-09-20T01:49:55.143Z,101269.46
2018-09-20T01:54:49.644Z,101269.32
2018-09-20T01:59:44.319Z,101268.82
2018-09-20T02:04:38.804Z,101275.76
2018-09-20T02:09:33.301Z,101272.70
2018-09-20T02:14:27.789Z,101275.03
2018-09-20T02:19:22.236Z,101280.87
2018-09-20T02:24:16.814Z,101282.65
2018-09-20T02:29:11.265Z,101290.20
2018-09-20T02:34:05.749Z,101287.97
2018-09-20T02:39:00.239Z,101284.82
2018-09-20T02:43:54.913Z,101285.53
2018-09-20T02:48:49.688Z,101290.77
2018-09-20T02:53:44.132Z,101296.08
2018-09-20T02:58:38.628Z,101292.86
2018-09-20T03:03:33.189Z,101288.36
2018-09-20T03:08:27.669Z,101284.55
2018-09-20T03:13:22.130Z,101284.20
2018-09-20T03:18:16.780Z,101280.89
2018-09-20T03:23:11.276Z,101276.28
2018-09-20T03:28:06.079Z,101275.89
2018-09-20T03:33:00.569Z,101272.39
2018-09-20T03:37:55.310Z,101265.19
2018-09-20T03:42:49.809Z,101269.78
2018-09-20T03:47:44.452Z,101265.14
2018-09-20T03:52:39.197Z,101270.14
2018-09-20T03:57:33.852Z,101265.88
2018-09-20T04:02:28.303Z,101266.11
2018-09-20T04:07:22.901Z,101267.77
2018-09-20T04:12:17.745Z,101268.11
2018-09-20T04:17:12.227Z,101270.41
2018-09-20T04:22:07.082Z,101272.10
2018-09-20T04:27:01.566Z,101271.63
2018-09-20T04:31:56.466Z,101277.92
2018-09-20T04:36:51.539Z,101282.62
2018-09-20T04:41:46.039Z,101284.83
2018-09-20T04:46:40.736Z,101277.40
2018-09-20T04:51:35.399Z,101281.91
2018-09-20T04:56:30.093Z,101281.05
2018-09-20T05:01:24.573Z,101286.39
2018-09-20T05:06:19.023Z,101288.59
2018-09-20T05:11:13.491Z,101284.94
2018-09-20T05:16:07.936Z,101285.94
2018-09-20T05:21:02.421Z,101282.56
2018-09-20T05:25:56.923Z,101288.31
2018-09-20T05:30:51.468Z,101280.95
2018-09-20T05:35:46.568Z,101278.05
2018-09-20T05:40:41.053Z,101275.31
2018-09-20T05:45:35.532Z,101275.77
2018-09-20T05:50:30.020Z,101276.05
2018-09-20T05:55:24.930Z,101273.91
2018-09-20T06:00:19.438Z,101273.92
2018-09-20T06:05:13.918Z,101276.02
2018-09-20T06:10:08.539Z,101283.56
2018-09-20T06:15:03.621Z,101297.13
2018-09-20T06:19:58.594Z,101295.77
2018-09-20T06:24:53.145Z,101294.26
2018-09-20T06:29:47.620Z,101293.21
2018-09-20T06:34:43.135Z,101291.45
2018-09-20T06:39:37.780Z,101296.92
2018-09-20T06:44:33.271Z,101301.15
2018-09-20T06:49:28.409Z,101301.83
2018-09-20T06:54:22.877Z,101302.44
2018-09-20T06:59:17.606Z,101291.45
2018-09-20T07:04:12.331Z,101300.09
2018-09-20T07:09:11.450Z,101290.17
2018-09-20T07:14:06.172Z,101286.11
2018-09-20T07:19:01.563Z,101280.87
2018-09-20T07:23:56.514Z,101277.84
2018-09-20T07:28:51.263Z,101269.17
2018-09-20T07:33:46.274Z,101279.90
2018-09-20T07:38:41.246Z,101276.53
2018-09-20T07:43:36.100Z,101280.31
2018-09-20T07:48:30.987Z,101284.93
2018-09-20T07:53:25.996Z,101280.84
2018-09-20T07:58:20.919Z,101281.63
2018-09-20T08:03:15.667Z,101283.60
2018-09-20T08:08:10.680Z,101282.52
2018-09-20T08:13:05.595Z,101286.67
2018-09-20T08:18:00.444Z,101287.63
2018-09-20T08:22:55.203Z,101285.59
2018-09-20T08:27:50.269Z,101285.82
2018-09-20T08:32:45.326Z,101296.24
2018-09-20T08:37:40.177Z,101287.75
2018-09-20T08:42:35.279Z,101286.42
2018-09-20T08:47:30.179Z,101285.13
2018-09-20T08:52:25.125Z,101284.95
2018-09-20T08:57:19.899Z,101290.34
2018-09-20T09:02:15.207Z,101279.14
2018-09-20T09:07:09.972Z,101283.44
2018-09-20T09:12:04.802Z,101273.13
2018-09-20T09:16:59.796Z,101267.11
2018-09-20T09:21:54.719Z,101258.34
2018-09-20T09:26:49.463Z,101252.11
2018-09-20T09:31:44.414Z,101247.25
2018-09-20T09:36:39.260Z,101244.55
2018-09-20T09:41:34.159Z,101229.42
2018-09-20T09:46:28.921Z,101217.12
2018-09-20T09:51:23.824Z,101216.45
2018-09-20T09:56:18.567Z,101211.42
2018-09-20T10:01:13.366Z,101213.30
2018-09-20T10:06:08.116Z,101210.30
2018-09-20T10:11:02.861Z,101204.65
2018-09-20T10:15:57.603Z,101204.28
2018-09-20T10:20:52.706Z,101190.02
2018-09-20T10:25:47.464Z,101184.66
2018-09-20T10:30:42.591Z,101175.58
2018-09-20T10:35:37.554Z,101169.93
2018-09-20T10:40:32.597Z,101169.34
2018-09-20T10:45:27.330Z,101169.88
2018-09-20T10:50:22.172Z,101158.98
2018-09-20T10:55:16.904Z,101152.06
2018-09-20T11:00:12.136Z,101156.70
2018-09-20T11:05:06.989Z,101141.52
2018-09-20T11:10:02.106Z,101135.23
2018-09-20T11:14:56.959Z,101138.70
2018-09-20T11:19:51.737Z,101122.37
2018-09-20T11:24:46.465Z,101116.92
2018-09-20T11:29:41.484Z,101111.72
2018-09-20T11:34:36.517Z,101109.77
2018-09-20T11:39:31.268Z,101104.01
2018-09-20T11:44:26.201Z,101101.72
2018-09-20T11:49:20.953Z,101104.52
2018-09-20T11:54:15.788Z,101096.15
2018-09-20T11:59:10.608Z,101088.37
2018-09-20T12:04:05.339Z,101092.09
2018-09-20T12:09:00.167Z,101091.19
2018-09-20T12:13:55.002Z,101086.04
2018-09-20T12:18:49.802Z,101076.63
2018-09-20T12:23:44.325Z,101066.19
2018-09-20T12:28:39.349Z,101065.05
2018-09-20T12:33:34.140Z,101051.39
2018-09-20T12:38:28.940Z,101040.05
2018-09-20T12:43:23.842Z,101041.22
2018-09-20T12:48:18.376Z,101034.52
2018-09-20T12:53:13.048Z,101038.30
2018-09-20T12:58:07.834Z,101022.57
2018-09-20T13:03:02.595Z,101028.09
2018-09-20T13:07:57.689Z,101015.78
2018-09-20T13:12:52.477Z,101007.63
2018-09-20T13:17:47.414Z,100997.71
2018-09-20T13:22:42.406Z,100991.19
2018-09-20T13:27:37.138Z,100985.86
2018-09-20T13:32:31.964Z,100987.22
2018-09-20T13:37:26.841Z,100979.45
2018-09-20T13:42:21.717Z,100976.03
2018-09-20T13:47:16.900Z,100971.75
2018-09-20T13:52:11.645Z,100963.55
2018-09-20T13:57:06.874Z,100954.37
2018-09-20T14:02:01.628Z,100948.77
2018-09-20T14:06:56.566Z,100939.61
2018-09-20T14:11:51.284Z,100940.88
2018-09-20T14:16:46.017Z,100927.45
2018-09-20T14:21:40.996Z,100919.86
2018-09-20T14:26:35.733Z,100916.63
2018-09-20T14:31:30.474Z,100905.29
2018-09-20T14:36:25.210Z,100889.05
2018-09-20T14:41:19.959Z,100885.16
2018-09-20T14:46:14.776Z,100874.98
2018-09-20T14:51:09.685Z,100866.76
2018-09-20T14:56:04.423Z,100864.28
2018-09-20T15:01:00.163Z,100863.91
2018-09-20T15:05:55.178Z,100851.60
2018-09-20T15:10:50.375Z,100852.62
2018-09-20T15:15:45.211Z,100851.59
2018-09-20T15:20:39.936Z,100836.53
2018-09-20T15:25:35.188Z,100831.72
2018-09-20T15:30:29.934Z,100830.91
2018-09-20T15:35:24.787Z,100821.13
2018-09-20T15:40:20.649Z,100815.45
2018-09-20T15:45:15.326Z,100813.16
2018-09-20T15:50:10.167Z,100802.56
2018-09-20T15:55:05.257Z,100797.90
2018-09-20T16:00:00.923Z,100793.94
2018-09-20T16:04:55.364Z,100789.47
2018-09-20T16:09:50.275Z,100793.84
2018-09-20T16:14:45.030Z,100792.39
2018-09-20T16:19:39.712Z,100784.60
2018-09-20T16:24:34.551Z,100782.71
2018-09-20T16:29:46.133Z,100768.19
2018-09-20T16:35:02.365Z,100767.28
2018-09-20T16:39:59.816Z,100756.17
2018-09-20T16:44:54.304Z,100752.50
2018-09-20T16:49:48.989Z,100745.14
2018-09-20T16:54:43.492Z,100741.03
2018-09-20T16:59:38.006Z,100739.99
2018-09-20T17:04:32.990Z,100735.34
2018-09-20T17:09:27.912Z,100739.21
2018-09-20T17:14:22.620Z,100737.45
2018-09-20T17:19:17.251Z,100738.27
2018-09-20T17:24:12.037Z,100742.13
2018-09-20T17:29:06.875Z,100736.67
2018-09-20T17:34:01.373Z,100739.50
2018-09-20T17:38:57.558Z,100739.58
2018-09-20T17:43:54.028Z,100730.88
2018-09-20T17:48:48.532Z,100734.45
2018-09-20T17:53:44.452Z,100721.30
2018-09-20T17:58:40.126Z,100728.60
2018-09-20T18:03:34.923Z,100729.47
2018-09-20T18:08:29.404Z,100733.00
2018-09-20T18:13:23.947Z,100723.91
2018-09-20T18:18:18.800Z,100722.38
2018-09-20T18:23:13.752Z,100716.13
2018-09-20T18:28:08.538Z,100721.21
2018-09-20T18:33:03.059Z,100711.59
2018-09-20T18:37:57.674Z,100702.64
2018-09-20T18:42:52.187Z,100706.03
2018-09-20T18:47:46.714Z,100695.90
2018-09-20T18:52:41.234Z,100694.55
2018-09-20T18:57:35.756Z,100687.97
2018-09-20T19:02:30.551Z,100691.16
2018-09-20T19:07:25.126Z,100696.17
2018-09-20T19:12:19.930Z,100697.33
2018-09-20T19:17:14.479Z,100692.10
2018-09-20T19:22:09.173Z,100684.51
2018-09-20T19:27:04.087Z,100676.25
2018-09-20T19:31:58.586Z,100676.27
2018-09-20T19:36:53.274Z,100668.15
2018-09-20T19:41:47.844Z,100670.66
2018-09-20T19:46:42.514Z,100666.58
2018-09-20T19:51:37.056Z,100654.78
2018-09-20T19:56:31.928Z,100665.38
2018-09-20T20:01:26.432Z,100659.62
2018-09-20T20:06:21.000Z,100649.00
2018-09-20T20:11:15.675Z,100649.86
2018-09-20T20:16:10.285Z,100648.77
2018-09-20T20:21:05.267Z,100640.69
2018-09-20T20:26:00.169Z,100635.27
2018-09-20T20:30:54.972Z,100632.70
2018-09-20T20:35:49.648Z,100632.69
2018-09-20T20:41:17.054Z,100620.86
2018-09-20T20:46:11.545Z,100616.65
2018-09-20T20:51:06.093Z,100613.38
2018-09-20T20:56:00.761Z,100606.59
2018-09-20T21:00:55.286Z,100606.05
2018-09-20T21:05:50.695Z,100599.61
2018-09-20T21:10:45.808Z,100594.17
2018-09-20T21:15:41.751Z,100589.07
2018-09-20T21:20:36.435Z,100588.03
2018-09-20T21:25:33.163Z,100582.97
2018-09-20T21:30:27.985Z,100577.05
2018-09-20T21:35:22.868Z,100566.44
2018-09-20T21:40:17.363Z,100560.52
2018-09-20T21:45:12.546Z,100556.27
2018-09-20T21:50:07.597Z,100551.00
2018-09-20T21:55:03.260Z,100542.58
2018-09-20T21:59:58.162Z,100543.22
2018-09-20T22:04:53.562Z,100532.56
2018-09-20T22:09:59.259Z,100523.95
2018-09-20T22:15:13.473Z,100520.94
2018-09-20T22:20:08.073Z,100517.75
2018-09-20T22:25:03.788Z,100507.82
2018-09-20T22:29:59.690Z,100498.25
2018-09-20T22:34:54.765Z,100492.20
2018-09-20T22:39:52.892Z,100483.94
2018-09-20T22:44:48.116Z,100471.99
2018-09-20T22:49:44.370Z,100467.63
2018-09-20T22:54:40.542Z,100459.39
2018-09-20T22:59:35.633Z,100451.24
2018-09-20T23:04:30.658Z,100445.00
2018-09-20T23:09:25.810Z,100443.81
2018-09-20T23:14:20.866Z,100438.28
2018-09-20T23:19:16.146Z,100443.00
2018-09-20T23:24:11.497Z,100431.89
2018-09-20T23:29:06.534Z,100426.17
2018-09-20T23:34:01.755Z,100418.27
2018-09-20T23:38:56.704Z,100417.41
2018-09-20T23:43:51.732Z,100417.89
2018-09-20T23:48:47.437Z,100411.86
2018-09-20T23:53:43.477Z,100410.63
2018-09-20T23:58:38.094Z,100409.44
